createdAt,value
2023-03-22T00:00:00.473Z,15.37
2023-03-22T00:05:00.771Z,15.37
2023-03-22T00:10:00.517Z,14.93
2023-03-22T00:15:00.557Z,14.64
2023-03-22T00:20:00.427Z,15.17
2023-03-22T00:25:00.525Z,15.17
2023-03-22T00:30:00.392Z,15.17
2023-03-22T00:35:04.958Z,15.17
2023-03-22T00:40:00.475Z,15.17
2023-03-22T00:45:00.593Z,15.17
2023-03-22T00:50:00.569Z,15.17
2023-03-22T00:55:00.674Z,15.17
2023-03-22T01:00:00.460Z,15.24
2023-03-22T01:05:00.586Z,15.24
2023-03-22T01:10:00.900Z,15.24
2023-03-22T01:15:00.399Z,15.31
2023-03-22T01:20:00.478Z,15.31
2023-03-22T01:25:01.021Z,15.31
2023-03-22T01:30:00.463Z,15.17
2023-03-22T01:35:00.582Z,15.17
2023-03-22T01:40:00.497Z,15.17
2023-03-22T01:45:00.527Z,15.69
2023-03-22T01:50:00.653Z,15.12
2023-03-22T01:55:00.641Z,15.12
2023-03-22T02:00:00.433Z,15.12
2023-03-22T02:05:00.994Z,14.67
2023-03-22T02:10:00.550Z,14.67
2023-03-22T02:15:00.553Z,14.76
2023-03-22T02:20:00.843Z,14.62
2023-03-22T02:25:00.677Z,14.62
2023-03-22T02:30:00.706Z,14.62
2023-03-22T02:35:00.503Z,15.12
2023-03-22T02:40:00.830Z,14.6
2023-03-22T02:45:00.441Z,14.87
2023-03-22T02:50:00.553Z,14.87
2023-03-22T02:55:00.653Z,14.35
2023-03-22T03:00:00.449Z,14.26
2023-03-22T03:05:04.733Z,14.26
2023-03-22T03:10:00.826Z,14.74
2023-03-22T03:15:01.132Z,14.14
2023-03-22T03:20:00.437Z,13.62
2023-03-22T03:25:00.647Z,13.62
2023-03-22T03:30:00.436Z,13.62
2023-03-22T03:35:00.553Z,13.08
2023-03-22T03:40:01.041Z,12.95
2023-03-22T03:45:00.467Z,13.43
2023-03-22T03:50:00.597Z,12.86
2023-03-22T03:55:01.085Z,12.86
2023-03-22T04:00:00.423Z,12.3
2023-03-22T04:05:00.481Z,12.3
2023-03-22T04:10:00.988Z,12.3
2023-03-22T04:15:00.459Z,12.3
2023-03-22T04:20:00.577Z,12.23
2023-03-22T04:25:00.707Z,12.23
2023-03-22T04:30:00.440Z,12.23
2023-03-22T04:35:00.605Z,11.71
2023-03-22T04:40:00.460Z,11.2
2023-03-22T04:45:00.518Z,11.15
2023-03-22T04:50:00.513Z,11.47
2023-03-22T04:55:00.831Z,11.73
2023-03-22T05:00:00.431Z,11.73
2023-03-22T05:05:00.488Z,11.8
2023-03-22T05:10:00.629Z,12.73
2023-03-22T05:15:00.423Z,12.73
2023-03-22T05:20:01.021Z,12.73
2023-03-22T05:25:00.968Z,12.22
2023-03-22T05:30:00.457Z,12.22
2023-03-22T05:35:05.464Z,11.71
2023-03-22T05:40:00.480Z,11.47
2023-03-22T05:45:01.309Z,11.54
2023-03-22T05:50:00.504Z,11.75
2023-03-22T05:55:00.742Z,11.75
2023-03-22T06:00:00.448Z,12.56
2023-03-22T06:05:00.598Z,12.78
2023-03-22T06:10:01.340Z,12.78
2023-03-22T06:15:01.025Z,13.3
2023-03-22T06:20:00.445Z,14.32
2023-03-22T06:25:00.721Z,14.32
2023-03-22T06:30:00.579Z,14.32
2023-03-22T06:35:00.786Z,14.32
2023-03-22T06:40:01.698Z,14.6
2023-03-22T06:45:00.486Z,14.6
2023-03-22T06:50:00.528Z,13.81
2023-03-22T06:55:00.617Z,13.3
2023-03-22T07:00:00.649Z,13.3
2023-03-22T07:05:00.432Z,13.88
2023-03-22T07:10:01.681Z,14.43
2023-03-22T07:15:00.449Z,14.43
2023-03-22T07:20:00.503Z,14.97
2023-03-22T07:25:01.818Z,14.97
2023-03-22T07:30:00.435Z,15.21
2023-03-22T07:35:00.764Z,15.21
2023-03-22T07:40:00.587Z,15.48
2023-03-22T07:45:00.559Z,15.48
2023-03-22T07:50:00.426Z,15.99
2023-03-22T07:55:00.707Z,15.99
2023-03-22T08:00:00.427Z,15.99
2023-03-22T08:05:05.183Z,15.99
2023-03-22T08:10:00.698Z,15.99
2023-03-22T08:15:00.923Z,15.99
2023-03-22T08:20:00.422Z,15.99
2023-03-22T08:25:00.967Z,15.92
2023-03-22T08:30:00.406Z,15.92
2023-03-22T08:35:00.592Z,15.92
2023-03-22T08:40:00.626Z,15.92
2023-03-22T08:45:00.759Z,15.92
2023-03-22T08:50:00.427Z,15.92
2023-03-22T08:55:02.737Z,16.52
2023-03-22T09:00:00.426Z,16.52
2023-03-22T09:05:00.471Z,16.52
2023-03-22T09:10:00.639Z,16.58
2023-03-22T09:15:00.608Z,16.58
2023-03-22T09:20:11.907Z,17.13
2023-03-22T09:25:00.803Z,17.13
2023-03-22T09:30:00.476Z,17.13
2023-03-22T09:35:00.525Z,17.13
2023-03-22T09:40:00.540Z,17.48
2023-03-22T09:45:00.574Z,17.48
2023-03-22T09:50:00.459Z,18.07
2023-03-22T09:55:00.548Z,18.07
2023-03-22T10:00:00.458Z,18.07
2023-03-22T10:05:00.563Z,18.07
2023-03-22T10:10:00.656Z,18.07
2023-03-22T10:15:02.765Z,18.3
2023-03-22T10:20:00.435Z,18.83
2023-03-22T10:25:00.628Z,18.83
2023-03-22T10:30:00.586Z,18.83
2023-03-22T10:35:00.554Z,19.36
2023-03-22T10:40:00.868Z,19.36
2023-03-22T10:45:00.499Z,19.36
2023-03-22T10:50:00.543Z,19.86
2023-03-22T10:55:03.777Z,19.86
2023-03-22T11:00:00.577Z,19.86
2023-03-22T11:05:00.695Z,20
2023-03-22T11:10:00.720Z,20
2023-03-22T11:15:00.501Z,19.88
2023-03-22T11:20:00.475Z,19.88
2023-03-22T11:25:00.642Z,19.88
2023-03-22T11:30:00.471Z,19.88
2023-03-22T11:40:00.662Z,20.54
2023-03-22T11:45:00.995Z,20.54
2023-03-22T11:50:00.424Z,20.54
2023-03-22T11:55:00.546Z,20.92
2023-03-22T12:00:00.433Z,20.92
2023-03-22T12:05:00.641Z,20.92
2023-03-22T12:10:00.640Z,20.91
2023-03-22T12:15:00.411Z,20.91
2023-03-22T12:20:00.498Z,20.91
2023-03-22T12:25:00.744Z,20.91
2023-03-22T12:30:00.389Z,20.91
2023-03-22T12:40:00.519Z,20.89
2023-03-22T12:45:05.089Z,21.44
2023-03-22T12:50:00.418Z,21.44
2023-03-22T12:55:00.591Z,21.44
2023-03-22T13:00:00.469Z,21.06
2023-03-22T13:05:00.532Z,21.06
2023-03-22T13:10:00.571Z,21.74
2023-03-22T13:15:00.497Z,21.22
2023-03-22T13:20:00.403Z,21.22
2023-03-22T13:25:00.891Z,21.22
2023-03-22T13:30:01.522Z,21.73
2023-03-22T13:40:00.519Z,21.73
2023-03-22T13:45:00.545Z,21.63
2023-03-22T13:50:00.557Z,21.63
2023-03-22T13:55:00.758Z,21.37
2023-03-22T14:00:10.428Z,21.09
2023-03-22T14:05:00.623Z,21.09
2023-03-22T14:10:00.544Z,21.09
2023-03-22T14:15:00.495Z,21.09
2023-03-22T14:20:00.478Z,20.58
2023-03-22T14:55:00.664Z,20.19
2023-03-22T15:00:00.375Z,20.19
2023-03-22T15:05:00.541Z,20.19
2023-03-22T15:10:01.047Z,20.19
2023-03-22T15:15:00.364Z,19.6
2023-03-22T15:20:00.525Z,19.6
2023-03-22T15:25:01.107Z,19.6
2023-03-22T15:30:00.404Z,19.6
2023-03-22T15:35:00.539Z,19.6
2023-03-22T15:40:00.510Z,19.37
2023-03-22T15:45:00.383Z,19.37
2023-03-22T15:50:01.544Z,19.05
2023-03-22T15:55:00.430Z,19.05
2023-03-22T16:00:00.441Z,19.05
2023-03-22T16:05:00.512Z,19.05
2023-03-22T16:10:00.602Z,19.1
2023-03-22T16:15:00.365Z,19.1
2023-03-22T16:20:00.716Z,19.1
2023-03-22T16:25:00.568Z,19.1
2023-03-22T16:30:00.412Z,18.57
2023-03-22T16:35:00.448Z,18.48
2023-03-22T16:40:00.586Z,18.48
2023-03-22T16:45:00.385Z,18.28
2023-03-22T16:50:00.580Z,18.28
2023-03-22T16:55:00.484Z,18.28
2023-03-22T17:00:00.527Z,18.28
2023-03-22T17:05:00.616Z,18.28
2023-03-22T17:10:00.556Z,18.28
2023-03-22T17:15:00.366Z,17.76
2023-03-22T17:20:00.512Z,17.76
2023-03-22T17:25:00.601Z,17.52
2023-03-22T17:30:00.610Z,17.28
2023-03-22T17:35:00.542Z,17.28
2023-03-22T17:40:28.276Z,17.28
2023-03-22T17:45:00.597Z,17.28
2023-03-22T17:50:00.543Z,16.73
2023-03-22T17:55:18.729Z,16.73
2023-03-22T18:00:00.425Z,16.73
2023-03-22T18:05:00.500Z,16.73
2023-03-22T18:10:00.620Z,16.73
2023-03-22T18:15:00.389Z,16.73
2023-03-22T18:20:12.520Z,16.35
2023-03-22T18:25:00.472Z,16.35
2023-03-22T18:30:00.449Z,16.35
2023-03-22T18:35:00.993Z,16.35
2023-03-22T18:45:00.660Z,15.85
2023-03-22T18:50:00.445Z,15.62
2023-03-22T18:55:15.150Z,15.62
2023-03-22T19:00:00.507Z,15.62
2023-03-22T19:05:00.634Z,15.62
2023-03-22T19:10:00.532Z,15.62
2023-03-22T19:15:28.125Z,15.53
2023-03-22T19:20:00.515Z,15.41
2023-03-22T19:25:01.087Z,15.41
2023-03-22T19:30:00.379Z,15.41
2023-03-22T19:35:00.535Z,15.41
2023-03-22T19:40:58.778Z,15.41
2023-03-22T19:45:00.585Z,14.9
2023-03-22T19:50:00.477Z,14.9
2023-03-22T19:55:00.454Z,14.9
2023-03-22T20:00:28.751Z,14.62
2023-03-22T20:05:05.349Z,15.14
2023-03-22T20:10:00.551Z,15.24
2023-03-22T20:15:00.371Z,15.24
2023-03-22T20:20:00.538Z,15.24
2023-03-22T20:25:00.671Z,14.63
2023-03-22T20:30:00.429Z,14.63
2023-03-22T20:35:01.287Z,14.63
2023-03-22T20:40:00.458Z,14.12
2023-03-22T20:45:00.535Z,14.12
2023-03-22T20:50:00.520Z,14.12
2023-03-22T20:55:00.565Z,14.12
2023-03-22T21:00:00.371Z,14.11
2023-03-22T21:05:00.496Z,13.96
2023-03-22T21:10:00.598Z,13.96
2023-03-22T21:15:00.386Z,13.96
2023-03-22T21:20:00.502Z,13.56
2023-03-22T21:25:01.090Z,13.56
2023-03-22T21:30:00.402Z,13.56
2023-03-22T21:35:00.544Z,13.56
2023-03-22T21:40:00.685Z,13.05
2023-03-22T21:45:00.409Z,13.05
2023-03-22T21:50:00.594Z,13.05
2023-03-22T21:55:00.461Z,12.97
2023-03-22T22:00:00.481Z,12.97
2023-03-22T22:05:00.711Z,12.97
2023-03-22T22:10:00.527Z,12.97
2023-03-22T22:15:00.403Z,12.97
2023-03-22T22:20:00.466Z,12.97
2023-03-22T22:25:00.567Z,12.97
2023-03-22T22:30:00.373Z,12.97
2023-03-22T22:35:00.538Z,12.93
2023-03-22T22:40:00.453Z,12.93
2023-03-22T22:45:00.550Z,12.93
2023-03-22T22:50:00.464Z,13.21
2023-03-22T22:55:00.507Z,13.21
2023-03-22T23:00:00.403Z,13.21
2023-03-22T23:05:00.532Z,12.42
2023-03-22T23:10:00.762Z,12.42
2023-03-22T23:15:00.436Z,12.42
2023-03-22T23:20:00.468Z,11.91
2023-03-22T23:25:00.608Z,11.91
2023-03-22T23:30:00.380Z,11.91
2023-03-22T23:35:00.467Z,11.95
2023-03-22T23:40:00.515Z,12.01
2023-03-22T23:45:00.377Z,11.91
2023-03-22T23:50:00.691Z,11.91
2023-03-22T23:55:00.468Z,11.91
